createdAt,value
2018-07-22T00:02:07.110Z,12.37
2018-07-22T00:04:35.367Z,13.83
2018-07-22T00:07:04.403Z,11.53
2018-07-22T00:09:32.666Z,13.93
2018-07-22T00:12:00.991Z,11.87
2018-07-22T00:14:29.283Z,9.67
2018-07-22T00:16:58.308Z,11.23
2018-07-22T00:19:26.575Z,12.07
2018-07-22T00:21:54.826Z,11.60
2018-07-22T00:24:24.015Z,10.73
2018-07-22T00:26:52.255Z,10.63
2018-07-22T00:29:20.545Z,12.50
2018-07-22T00:31:48.824Z,11.03
2018-07-22T00:34:17.079Z,10.20
2018-07-22T00:36:45.344Z,13.57
2018-07-22T00:39:13.590Z,11.43
2018-07-22T00:41:41.904Z,13.10
2018-07-22T00:44:10.910Z,13.30
2018-07-22T00:46:39.158Z,12.40
2018-07-22T00:49:07.428Z,14.57
2018-07-22T00:51:35.678Z,17.23
2018-07-22T00:54:04.724Z,11.97
2018-07-22T00:56:32.978Z,11.23
2018-07-22T00:59:01.233Z,14.40
2018-07-22T01:01:29.494Z,10.93
2018-07-22T01:03:58.518Z,12.80
2018-07-22T01:06:27.092Z,12.60
2018-07-22T01:08:55.350Z,12.00
2018-07-22T01:11:23.599Z,15.50
2018-07-22T01:13:51.974Z,14.50
2018-07-22T01:16:20.229Z,14.10
2018-07-22T01:18:48.486Z,13.90
2018-07-22T01:21:16.746Z,13.33
2018-07-22T01:23:44.994Z,16.50
2018-07-22T01:26:14.014Z,16.63
2018-07-22T01:28:42.275Z,16.40
2018-07-22T01:31:10.606Z,13.00
2018-07-22T01:33:38.840Z,18.03
2018-07-22T01:36:07.087Z,15.47
2018-07-22T01:38:37.299Z,13.10
2018-07-22T01:41:06.318Z,14.03
2018-07-22T01:43:34.591Z,11.77
2018-07-22T01:46:03.098Z,13.53
2018-07-22T01:48:31.383Z,14.13
2018-07-22T01:50:59.631Z,15.97
2018-07-22T01:53:27.912Z,11.63
2018-07-22T01:55:56.162Z,14.93
2018-07-22T01:58:24.447Z,13.30
2018-07-22T02:00:52.719Z,12.50
2018-07-22T02:03:21.028Z,12.00
2018-07-22T02:05:49.286Z,14.37
2018-07-22T02:08:17.934Z,12.03
2018-07-22T02:10:46.949Z,11.70
2018-07-22T02:13:15.203Z,12.43
2018-07-22T02:15:44.247Z,12.97
2018-07-22T02:18:12.502Z,11.73
2018-07-22T02:20:40.771Z,10.63
2018-07-22T02:23:09.028Z,15.70
2018-07-22T02:25:38.202Z,11.30
2018-07-22T02:28:06.455Z,11.63
2018-07-22T02:30:34.706Z,12.90
2018-07-22T02:33:03.001Z,11.33
2018-07-22T02:35:31.246Z,12.90
2018-07-22T02:38:00.299Z,10.37
2018-07-22T02:40:28.542Z,10.07
2018-07-22T02:42:56.788Z,12.07
2018-07-22T02:45:25.060Z,11.03
2018-07-22T02:47:53.343Z,10.70
2018-07-22T02:50:21.723Z,10.60
2018-07-22T02:52:49.966Z,11.97
2018-07-22T02:55:18.981Z,10.93
2018-07-22T02:57:47.235Z,13.40
2018-07-22T03:00:16.258Z,10.97
2018-07-22T03:02:44.560Z,14.80
2018-07-22T03:05:12.787Z,9.80
2018-07-22T03:07:41.157Z,14.17
2018-07-22T03:10:09.399Z,12.77
2018-07-22T03:12:37.647Z,12.27
2018-07-22T03:15:05.911Z,12.53
2018-07-22T03:17:34.200Z,12.47
2018-07-22T03:20:02.419Z,10.77
2018-07-22T03:22:31.550Z,11.53
2018-07-22T03:24:59.791Z,11.90
2018-07-22T03:27:28.825Z,11.30
2018-07-22T03:29:57.155Z,12.90
2018-07-22T03:32:25.385Z,13.20
2018-07-22T03:34:53.637Z,10.67
2018-07-22T03:37:21.882Z,10.67
2018-07-22T03:39:51.186Z,11.60
2018-07-22T03:42:20.209Z,10.07
2018-07-22T03:44:48.483Z,11.13
2018-07-22T03:47:16.732Z,10.00
2018-07-22T03:49:45.742Z,10.60
2018-07-22T03:52:14.008Z,14.00
2018-07-22T03:57:27.054Z,10.47
2018-07-22T03:59:55.301Z,12.50
2018-07-22T04:02:24.614Z,10.83
2018-07-22T04:04:53.613Z,8.57
2018-07-22T04:07:21.927Z,12.00
2018-07-22T04:09:50.198Z,9.43
2018-07-22T04:12:18.444Z,10.57
2018-07-22T04:14:46.706Z,12.30
2018-07-22T04:17:15.747Z,10.90
2018-07-22T04:19:43.978Z,12.30
2018-07-22T04:22:12.226Z,14.53
2018-07-22T04:24:40.513Z,12.23
2018-07-22T04:27:09.031Z,16.73
2018-07-22T04:29:37.277Z,10.70
2018-07-22T04:32:06.290Z,10.57
2018-07-22T04:34:34.553Z,10.07
2018-07-22T04:37:02.805Z,10.80
2018-07-22T04:39:31.078Z,14.10
2018-07-22T04:42:00.113Z,15.27
2018-07-22T04:44:28.368Z,13.07
2018-07-22T04:46:56.625Z,12.83
2018-07-22T04:49:24.878Z,13.63
2018-07-22T04:51:53.157Z,14.63
2018-07-22T04:54:21.466Z,13.37
2018-07-22T04:56:49.734Z,12.93
2018-07-22T04:59:18.749Z,13.27
2018-07-22T05:01:47.023Z,11.37
2018-07-22T05:04:15.281Z,11.23
2018-07-22T05:06:44.298Z,12.67
2018-07-22T05:09:12.570Z,11.57
2018-07-22T05:11:40.855Z,10.80
2018-07-22T05:14:09.128Z,11.13
2018-07-22T05:16:38.154Z,10.97
2018-07-22T05:19:06.402Z,11.63
2018-07-22T05:21:34.681Z,10.57
2018-07-22T05:24:02.935Z,13.17
2018-07-22T05:26:31.206Z,11.93
2018-07-22T05:28:59.458Z,11.93
2018-07-22T05:31:28.482Z,14.77
2018-07-22T05:33:56.767Z,13.77
2018-07-22T05:36:25.043Z,12.13
2018-07-22T05:38:53.767Z,12.13
2018-07-22T05:41:22.063Z,11.53
2018-07-22T05:43:51.095Z,12.40
2018-07-22T05:46:19.349Z,12.87
2018-07-22T05:48:47.627Z,13.03
2018-07-22T05:51:15.889Z,12.40
2018-07-22T05:53:44.918Z,13.43
2018-07-22T05:56:13.190Z,12.67
2018-07-22T05:58:41.535Z,13.90
2018-07-22T06:01:09.762Z,12.60
2018-07-22T06:03:38.190Z,12.23
2018-07-22T06:06:07.210Z,13.80
2018-07-22T06:08:35.466Z,12.70
2018-07-22T06:11:03.887Z,11.93
2018-07-22T06:13:32.139Z,16.57
2018-07-22T06:16:00.394Z,13.87
2018-07-22T06:18:28.661Z,14.77
2018-07-22T06:20:56.919Z,13.77
2018-07-22T06:23:26.003Z,14.87
2018-07-22T06:25:54.224Z,14.87
2018-07-22T06:28:22.519Z,13.73
2018-07-22T06:30:50.783Z,13.37
2018-07-22T06:33:19.034Z,15.90
2018-07-22T06:35:47.555Z,12.63
2018-07-22T06:38:15.807Z,12.73
2018-07-22T06:40:44.062Z,12.73
2018-07-22T06:43:12.334Z,14.43
2018-07-22T06:45:41.422Z,11.97
2018-07-22T06:48:09.702Z,12.30
2018-07-22T06:50:38.735Z,11.80
2018-07-22T06:53:07.038Z,11.90
2018-07-22T06:55:35.268Z,12.07
2018-07-22T06:58:03.552Z,12.43
2018-07-22T07:00:31.819Z,11.60
2018-07-22T07:03:00.095Z,12.30
2018-07-22T07:05:28.361Z,12.37
2018-07-22T07:07:56.614Z,12.07
2018-07-22T07:10:25.650Z,11.90
2018-07-22T07:12:54.678Z,12.27
2018-07-22T07:15:22.931Z,13.77
2018-07-22T07:17:51.316Z,15.17
2018-07-22T07:20:19.535Z,13.23
2018-07-22T07:22:47.815Z,11.33
2018-07-22T07:25:16.070Z,11.10
2018-07-22T07:27:45.107Z,10.40
2018-07-22T07:30:13.364Z,11.57
2018-07-22T07:32:41.618Z,10.33
2018-07-22T07:35:10.655Z,11.07
2018-07-22T07:37:39.250Z,9.83
2018-07-22T07:40:07.499Z,9.73
2018-07-22T07:42:35.727Z,8.10
2018-07-22T07:45:04.382Z,8.40
2018-07-22T07:47:32.619Z,7.87
2018-07-22T07:50:01.627Z,7.30
2018-07-22T07:52:30.039Z,7.63
2018-07-22T07:54:58.287Z,7.87
2018-07-22T07:57:26.530Z,8.47
2018-07-22T07:59:55.557Z,7.97
2018-07-22T08:02:23.818Z,9.27
2018-07-22T08:04:52.101Z,8.77
2018-07-22T08:07:21.386Z,9.07
2018-07-22T08:09:49.651Z,9.37
2018-07-22T08:12:18.659Z,9.10
2018-07-22T08:14:46.927Z,9.27
2018-07-22T08:17:15.178Z,9.30
2018-07-22T08:19:44.462Z,10.10
2018-07-22T08:22:12.774Z,9.27
2018-07-22T08:24:40.982Z,10.67
2018-07-22T08:27:09.247Z,10.10
2018-07-22T08:29:37.502Z,10.60
2018-07-22T08:32:05.780Z,12.40
2018-07-22T08:34:34.031Z,11.47
2018-07-22T08:37:03.059Z,11.77
2018-07-22T08:39:31.351Z,10.50
2018-07-22T08:41:59.611Z,13.50
2018-07-22T08:44:27.871Z,11.50
2018-07-22T08:46:56.143Z,12.23
2018-07-22T08:49:24.414Z,12.20
2018-07-22T08:51:52.734Z,11.60
2018-07-22T08:54:21.003Z,12.43
2018-07-22T08:56:49.286Z,12.23
2018-07-22T08:59:17.550Z,12.07
2018-07-22T09:01:45.818Z,11.90
2018-07-22T09:04:14.093Z,11.87
2018-07-22T09:06:42.387Z,12.73
2018-07-22T09:09:11.583Z,13.53
2018-07-22T09:11:39.861Z,11.40
2018-07-22T09:14:08.119Z,11.60
2018-07-22T09:16:36.402Z,12.27
2018-07-22T09:19:04.658Z,11.17
2018-07-22T09:21:32.923Z,11.33
2018-07-22T09:24:01.660Z,11.60
2018-07-22T09:26:29.915Z,10.90
2018-07-22T09:28:58.317Z,13.33
2018-07-22T09:31:26.571Z,12.57
2018-07-22T09:33:54.819Z,10.83
2018-07-22T09:36:23.148Z,10.27
2018-07-22T09:38:51.340Z,11.40
2018-07-22T09:41:20.386Z,11.97
2018-07-22T09:43:49.144Z,12.10
2018-07-22T09:46:17.407Z,11.43
2018-07-22T09:48:45.679Z,11.93
2018-07-22T09:51:13.942Z,14.17
2018-07-22T09:53:43.278Z,11.20
2018-07-22T09:56:11.566Z,10.03
2018-07-22T09:58:39.834Z,13.03
2018-07-22T10:01:08.103Z,9.53
2018-07-22T10:03:36.362Z,11.40
2018-07-22T10:06:04.623Z,10.83
2018-07-22T10:08:33.636Z,11.73
2018-07-22T10:11:01.920Z,10.70
2018-07-22T10:13:30.183Z,12.10
2018-07-22T10:15:58.451Z,11.83
2018-07-22T10:18:26.832Z,11.00
2018-07-22T10:20:55.159Z,11.73
2018-07-22T10:23:23.501Z,12.87
2018-07-22T10:25:51.726Z,10.93
2018-07-22T10:28:19.989Z,13.27
2018-07-22T10:30:48.247Z,13.60
2018-07-22T10:33:16.734Z,11.67
2018-07-22T10:35:45.064Z,11.60
2018-07-22T10:38:13.261Z,15.03
2018-07-22T10:40:41.543Z,11.73
2018-07-22T10:43:09.835Z,12.63
2018-07-22T10:45:38.059Z,11.93
2018-07-22T10:48:06.336Z,13.70
2018-07-22T10:50:35.354Z,12.10
2018-07-22T10:53:03.613Z,11.60
2018-07-22T10:55:31.925Z,14.60
2018-07-22T10:58:00.171Z,11.60
2018-07-22T11:00:28.449Z,12.87
2018-07-22T11:02:56.715Z,12.47
2018-07-22T11:05:24.995Z,11.70
2018-07-22T11:07:53.233Z,12.17
2018-07-22T11:10:22.580Z,13.10
2018-07-22T11:12:51.602Z,11.43
2018-07-22T11:15:19.871Z,12.17
2018-07-22T11:17:48.151Z,13.77
2018-07-22T11:20:16.406Z,11.43
2018-07-22T11:22:44.703Z,12.37
2018-07-22T11:25:12.960Z,10.87
2018-07-22T11:27:41.590Z,11.13
2018-07-22T11:30:09.822Z,11.87
2018-07-22T11:32:38.087Z,14.23
2018-07-22T11:35:06.358Z,12.93
2018-07-22T11:37:34.620Z,13.67
2018-07-22T11:40:02.891Z,14.30
2018-07-22T11:42:31.174Z,12.97
2018-07-22T11:44:59.697Z,11.23
2018-07-22T11:47:27.949Z,15.43
2018-07-22T11:49:57.183Z,12.47
2018-07-22T11:52:26.235Z,13.00
2018-07-22T11:54:54.496Z,11.23
2018-07-22T11:57:22.766Z,12.40
2018-07-22T11:59:51.041Z,11.17
2018-07-22T12:02:19.302Z,11.60
2018-07-22T12:04:47.570Z,14.83
2018-07-22T12:07:16.663Z,12.17
2018-07-22T12:09:44.884Z,18.03
2018-07-22T12:12:13.210Z,11.87
2018-07-22T12:14:41.440Z,11.57
2018-07-22T12:17:09.695Z,10.43
2018-07-22T12:19:37.959Z,10.67
2018-07-22T12:22:06.215Z,11.83
2018-07-22T12:24:35.253Z,9.90
2018-07-22T12:27:03.526Z,10.93
2018-07-22T12:29:31.891Z,10.50
2018-07-22T12:32:00.155Z,13.77
2018-07-22T12:34:28.467Z,11.27
2018-07-22T12:36:57.431Z,14.03
2018-07-22T12:39:25.815Z,13.23
2018-07-22T12:41:54.072Z,12.93
2018-07-22T12:44:22.322Z,10.60
2018-07-22T12:46:51.362Z,11.17
2018-07-22T12:49:19.632Z,11.33
2018-07-22T12:51:47.922Z,10.63
2018-07-22T12:54:16.153Z,8.83
2018-07-22T12:56:44.432Z,10.97
2018-07-22T12:59:13.470Z,10.27
2018-07-22T13:01:41.708Z,9.60
2018-07-22T13:04:10.083Z,9.40
2018-07-22T13:06:38.350Z,10.57
2018-07-22T13:09:06.620Z,11.03
2018-07-22T13:11:35.631Z,10.63
2018-07-22T13:14:03.895Z,10.70
2018-07-22T13:16:32.166Z,9.60
2018-07-22T13:19:01.787Z,11.40
2018-07-22T13:21:30.822Z,9.70
2018-07-22T13:23:59.087Z,9.37
2018-07-22T13:26:27.351Z,9.47
2018-07-22T13:28:55.632Z,10.40
2018-07-22T13:31:23.900Z,12.17
2018-07-22T13:33:52.151Z,11.93
2018-07-22T13:36:20.432Z,10.37
2018-07-22T13:38:48.678Z,11.43
2018-07-22T13:41:17.699Z,9.87
2018-07-22T13:43:45.944Z,10.27
2018-07-22T13:46:14.959Z,11.57
2018-07-22T13:48:43.222Z,10.20
2018-07-22T13:51:12.243Z,13.07
2018-07-22T13:53:40.521Z,16.07
2018-07-22T13:56:08.797Z,11.43
2018-07-22T13:58:37.050Z,10.73
2018-07-22T14:01:05.336Z,11.30
2018-07-22T14:03:33.578Z,9.97
2018-07-22T14:06:01.842Z,11.83
2018-07-22T14:08:30.887Z,10.50
2018-07-22T14:10:59.134Z,11.17
2018-07-22T14:13:28.155Z,13.53
2018-07-22T14:15:56.439Z,10.47
2018-07-22T14:18:24.749Z,10.73
2018-07-22T14:20:52.993Z,10.93
2018-07-22T14:23:21.271Z,14.43
2018-07-22T14:25:49.539Z,10.67
2018-07-22T14:28:17.814Z,12.33
2018-07-22T14:30:46.098Z,11.60
2018-07-22T14:33:14.346Z,11.17
2018-07-22T14:35:43.363Z,14.03
2018-07-22T14:38:11.647Z,11.40
2018-07-22T14:40:39.966Z,13.60
2018-07-22T14:43:08.189Z,11.03
2018-07-22T14:45:36.457Z,12.23
2018-07-22T14:48:04.723Z,11.13
2018-07-22T14:50:33.307Z,13.77
2018-07-22T14:53:01.599Z,13.23
2018-07-22T14:55:29.847Z,9.87
2018-07-22T14:57:58.134Z,9.73
2018-07-22T15:00:26.451Z,9.67
2018-07-22T15:02:54.655Z,9.97
2018-07-22T15:05:23.678Z,9.70
2018-07-22T15:07:51.947Z,9.60
2018-07-22T15:10:20.988Z,9.20
2018-07-22T15:12:49.243Z,12.27
2018-07-22T15:15:17.496Z,12.40
2018-07-22T15:17:45.767Z,11.13
2018-07-22T15:20:14.010Z,9.90
2018-07-22T15:22:43.063Z,10.03
2018-07-22T15:25:11.302Z,11.67
2018-07-22T15:27:40.325Z,10.93
2018-07-22T15:30:08.600Z,9.00
2018-07-22T15:32:36.854Z,14.90
2018-07-22T15:35:05.143Z,30.63
2018-07-22T15:37:33.422Z,19.47
2018-07-22T15:40:01.684Z,30.80
2018-07-22T15:42:30.024Z,23.70
2018-07-22T15:44:58.303Z,20.53
2018-07-22T15:47:26.559Z,9.50
2018-07-22T15:49:55.584Z,8.63
2018-07-22T15:52:23.883Z,10.60
2018-07-22T15:54:52.129Z,5.97
2018-07-22T15:57:20.376Z,7.10
2018-07-22T15:59:49.401Z,6.10
2018-07-22T16:02:17.696Z,5.33
2018-07-22T16:04:45.950Z,8.47
2018-07-22T16:07:14.211Z,8.30
2018-07-22T16:09:42.484Z,9.20
2018-07-22T16:12:11.514Z,6.87
2018-07-22T16:14:39.770Z,7.20
2018-07-22T16:17:08.037Z,5.77
2018-07-22T16:19:36.295Z,6.50
2018-07-22T16:22:05.331Z,7.37
2018-07-22T16:24:33.604Z,6.13
2018-07-22T16:27:01.855Z,10.00
2018-07-22T16:29:30.137Z,9.40
2018-07-22T16:31:58.387Z,6.23
2018-07-22T16:34:27.414Z,7.37
2018-07-22T16:36:55.676Z,5.70
2018-07-22T16:39:23.949Z,6.80
2018-07-22T16:41:52.192Z,5.20
2018-07-22T16:44:20.450Z,4.80
2018-07-22T16:46:48.738Z,5.13
2018-07-22T16:49:16.995Z,6.20
2018-07-22T16:51:45.268Z,8.20
2018-07-22T16:54:13.522Z,6.07
2018-07-22T16:56:41.782Z,6.70
2018-07-22T16:59:10.039Z,7.43
2018-07-22T17:01:38.319Z,7.30
2018-07-22T17:04:07.331Z,7.87
2018-07-22T17:06:35.597Z,6.43
2018-07-22T17:09:03.845Z,7.77
2018-07-22T17:11:32.855Z,8.60
2018-07-22T17:14:01.128Z,8.93
2018-07-22T17:16:30.145Z,7.77
2018-07-22T17:18:58.386Z,9.07
2018-07-22T17:21:27.430Z,7.83
2018-07-22T17:23:55.702Z,7.43
2018-07-22T17:26:23.989Z,8.30
2018-07-22T17:28:52.286Z,8.47
2018-07-22T17:31:20.570Z,9.43
2018-07-22T17:33:49.596Z,7.87
2018-07-22T17:36:17.847Z,8.90
2018-07-22T17:38:46.886Z,9.03
2018-07-22T17:41:15.165Z,8.37
2018-07-22T17:43:43.418Z,8.17
2018-07-22T17:46:11.685Z,9.23
2018-07-22T17:48:40.222Z,8.63
2018-07-22T17:51:08.526Z,8.23
2018-07-22T17:53:36.732Z,9.00
2018-07-22T17:56:04.990Z,8.67
2018-07-22T17:58:33.257Z,7.90
2018-07-22T18:01:01.507Z,8.67
2018-07-22T18:03:29.795Z,7.97
2018-07-22T18:05:59.071Z,9.50
2018-07-22T18:08:27.313Z,9.83
2018-07-22T18:10:55.615Z,8.73
2018-07-22T18:13:23.862Z,8.43
2018-07-22T18:15:52.120Z,9.33
2018-07-22T18:18:20.386Z,8.83
2018-07-22T18:20:48.663Z,9.43
2018-07-22T18:23:17.658Z,8.87
2018-07-22T18:25:45.930Z,10.67
2018-07-22T18:28:14.447Z,9.43
2018-07-22T18:30:42.706Z,10.23
2018-07-22T18:33:10.976Z,9.93
2018-07-22T18:35:39.415Z,8.80
2018-07-22T18:38:07.658Z,8.67
2018-07-22T18:40:35.932Z,9.27
2018-07-22T18:43:04.480Z,9.10
2018-07-22T18:45:32.908Z,8.83
2018-07-22T18:48:01.167Z,12.60
2018-07-22T18:50:29.699Z,8.47
2018-07-22T18:52:58.796Z,9.30
2018-07-22T18:55:27.377Z,9.67
2018-07-22T18:57:55.918Z,9.33
2018-07-22T19:00:24.494Z,9.60
2018-07-22T19:02:53.062Z,10.70
2018-07-22T19:05:21.634Z,10.43
2018-07-22T19:07:50.174Z,9.80
2018-07-22T19:10:18.790Z,11.07
2018-07-22T19:12:47.362Z,11.40
2018-07-22T19:15:15.924Z,11.00
2018-07-22T19:17:44.481Z,11.20
2018-07-22T19:20:13.799Z,10.77
2018-07-22T19:22:43.096Z,10.60
2018-07-22T19:25:11.659Z,10.40
2018-07-22T19:27:40.261Z,10.70
2018-07-22T19:30:09.562Z,11.73
2018-07-22T19:32:38.144Z,11.73
2018-07-22T19:35:06.807Z,11.70
2018-07-22T19:37:35.322Z,12.57
2018-07-22T19:40:03.900Z,13.27
2018-07-22T19:42:32.514Z,12.03
2018-07-22T19:45:01.124Z,12.17
2018-07-22T19:47:29.688Z,12.90
2018-07-22T19:49:58.233Z,11.83
2018-07-22T19:52:26.807Z,12.57
2018-07-22T19:54:55.344Z,12.20
2018-07-22T19:57:23.914Z,12.10
2018-07-22T19:59:52.647Z,12.70
2018-07-22T20:02:21.956Z,14.00
2018-07-22T20:04:50.514Z,12.13
2018-07-22T20:07:19.829Z,11.80
2018-07-22T20:09:49.161Z,12.57
2018-07-22T20:12:17.708Z,12.57
2018-07-22T20:14:47.076Z,12.53
2018-07-22T20:17:15.640Z,12.30
2018-07-22T20:19:44.991Z,12.17
2018-07-22T20:22:14.319Z,12.63
2018-07-22T20:24:42.885Z,11.97
2018-07-22T20:27:11.476Z,12.37
2018-07-22T20:29:40.428Z,12.97
2018-07-22T20:32:09.137Z,12.17
2018-07-22T20:34:37.668Z,11.67
2018-07-22T20:37:05.939Z,12.07
2018-07-22T20:39:34.208Z,11.30
2018-07-22T20:42:02.496Z,11.10
2018-07-22T20:44:30.775Z,11.80
2018-07-22T20:46:59.067Z,11.60
2018-07-22T20:49:27.347Z,11.03
2018-07-22T20:51:55.609Z,18.47
2018-07-22T20:54:23.866Z,11.43
2018-07-22T20:56:53.003Z,13.97
2018-07-22T20:59:22.288Z,11.47
2018-07-22T21:01:50.749Z,11.60
2018-07-22T21:04:19.142Z,10.77
2018-07-22T21:06:47.394Z,10.40
2018-07-22T21:09:15.641Z,10.33
2018-07-22T21:11:43.919Z,10.57
2018-07-22T21:14:12.229Z,9.80
2018-07-22T21:16:40.491Z,9.73
2018-07-22T21:19:08.751Z,9.47
2018-07-22T21:21:37.023Z,12.00
2018-07-22T21:24:05.277Z,10.03
2018-07-22T21:26:34.323Z,11.97
2018-07-22T21:29:02.570Z,12.10
2018-07-22T21:31:30.846Z,10.23
2018-07-22T21:33:59.120Z,10.57
2018-07-22T21:36:27.388Z,10.13
2018-07-22T21:38:55.660Z,10.10
2018-07-22T21:41:24.940Z,10.30
2018-07-22T21:43:54.042Z,12.00
2018-07-22T21:46:22.274Z,10.77
2018-07-22T21:48:50.528Z,10.27
2018-07-22T21:51:18.799Z,10.47
2018-07-22T21:53:47.174Z,11.60
2018-07-22T21:56:16.440Z,12.87
2018-07-22T21:58:45.476Z,11.60
2018-07-22T22:01:13.720Z,10.10
2018-07-22T22:03:42.015Z,11.90
2018-07-22T22:06:10.267Z,10.80
2018-07-22T22:08:39.299Z,10.23
2018-07-22T22:11:07.575Z,10.80
2018-07-22T22:13:35.826Z,10.77
2018-07-22T22:16:04.116Z,11.60
2018-07-22T22:18:32.375Z,11.30
2018-07-22T22:21:00.627Z,13.93
2018-07-22T22:23:29.665Z,11.17
2018-07-22T22:25:57.925Z,12.50
2018-07-22T22:28:26.198Z,13.13
2018-07-22T22:30:54.451Z,11.03
2018-07-22T22:33:22.710Z,13.00
2018-07-22T22:35:51.738Z,10.20
2018-07-22T22:38:20.045Z,12.73
2018-07-22T22:40:49.038Z,10.93
2018-07-22T22:43:17.303Z,13.57
2018-07-22T22:45:45.565Z,13.77
2018-07-22T22:48:13.839Z,14.03
2018-07-22T22:50:42.109Z,12.23
2018-07-22T22:53:10.382Z,16.67
2018-07-22T22:55:38.646Z,13.47
2018-07-22T22:58:30.591Z,13.23
2018-07-22T23:00:58.846Z,13.07
2018-07-22T23:03:27.118Z,12.90
2018-07-22T23:05:55.382Z,15.73
2018-07-22T23:08:24.442Z,14.33
2018-07-22T23:10:52.998Z,13.70
2018-07-22T23:13:22.014Z,20.87
2018-07-22T23:15:50.282Z,13.80
2018-07-22T23:18:18.555Z,14.47
2018-07-22T23:20:46.802Z,16.40
2018-07-22T23:23:15.291Z,14.80
2018-07-22T23:25:43.555Z,14.13
2018-07-22T23:28:11.805Z,14.73
2018-07-22T23:30:40.839Z,15.87
2018-07-22T23:33:09.102Z,14.20
2018-07-22T23:35:37.396Z,14.57
2018-07-22T23:38:05.649Z,13.77
2018-07-22T23:40:34.671Z,17.83
2018-07-22T23:43:02.943Z,18.40
2018-07-22T23:45:31.210Z,16.77
2018-07-22T23:47:59.485Z,13.93
2018-07-22T23:50:27.744Z,12.70
2018-07-22T23:52:56.155Z,11.40
2018-07-22T23:55:24.410Z,13.17
2018-07-22T23:57:52.700Z,13.33
